Time;durP1;ratioP1;P1;durP2;ratioP2;P2;SDS_P1;SDS_P2;PMS_P1;PMS_P2;Temp;Humidity;BMP_temperature;BMP_pressure;BME280_temperature;BME280_humidity;BME280_pressure;Samples;Min_cycle;Max_cycle;Signal;HPM_P1;HPM_P2
2021/07/30 00:00:57;;;;;;;;;;;;;;;30.08;37.59;100302.63;5076977;28;1971;-40
2021/07/30 00:03:22;;;;;;;;;;;;;;;30.24;37.38;100312.22;5076618;28;819;-39
2021/07/30 00:05:51;;;;;;;;;;;;;;;30.16;37.43;100315.94;5076681;28;844;-38
2021/07/30 00:08:17;;;;;;;;;;;;;;;30.10;37.49;100303.25;5076595;28;868;-41
2021/07/30 00:10:42;;;;;;;;;;;;;;;30.09;37.48;100309.72;5077064;28;751;-39
2021/07/30 00:13:07;;;;;;;;;;;;;;;30.27;37.37;100306.34;5077167;28;947;-39
2021/07/30 00:15:33;;;;;;;;;;;;;;;30.19;37.46;100303.84;5096923;28;815;-37
2021/07/30 00:17:58;;;;;;;;;;;;;;;30.11;37.68;100301.38;5096716;28;767;-39
2021/07/30 00:20:23;;;;;;;;;;;;;;;30.22;37.44;100308.88;5096999;28;1964;-39
2021/07/30 00:22:49;;;;;;;;;;;;;;;30.22;37.42;100298.03;5096760;28;863;-38
2021/07/30 00:25:14;;;;;;;;;;;;;;;30.19;37.57;100295.72;5096970;28;752;-40
2021/07/30 00:27:39;;;;;;;;;;;;;;;30.10;37.76;100289.69;5096794;28;950;-40
2021/07/30 00:30:05;;;;;;;;;;;;;;;30.16;37.53;100294.25;5096232;28;843;-39
2021/07/30 00:32:30;;;;;;;;;;;;;;;30.14;37.60;100296.38;5096872;28;881;-39
2021/07/30 00:34:55;;;;;;;;;;;;;;;30.20;37.50;100294.69;5096796;28;807;-40
2021/07/30 00:37:21;;;;;;;;;;;;;;;30.21;37.57;100295.53;5096664;28;858;-40
2021/07/30 00:39:46;;;;;;;;;;;;;;;30.07;37.64;100287.41;5096921;28;759;-40
2021/07/30 00:42:11;;;;;;;;;;;;;;;30.03;37.74;100291.63;5096202;28;1967;-40
2021/07/30 00:44:37;;;;;;;;;;;;;;;30.00;37.83;100286.59;5096543;28;930;-40
2021/07/30 00:47:02;;;;;;;;;;;;;;;30.05;37.79;100278.66;5096783;28;806;-40
2021/07/30 00:49:27;;;;;;;;;;;;;;;30.01;37.93;100275.53;5079204;28;756;-40
2021/07/30 00:51:52;;;;;;;;;;;;;;;30.12;37.65;100279.47;5100825;28;811;-40
2021/07/30 00:54:18;;;;;;;;;;;;;;;30.08;37.68;100275.50;5100589;28;1102;-40
2021/07/30 00:56:43;;;;;;;;;;;;;;;30.11;37.81;100277.81;5099956;28;923;-38
2021/07/30 00:59:08;;;;;;;;;;;;;;;30.10;37.76;100276.13;5100637;28;802;-41
2021/07/30 01:01:34;;;;;;;;;;;;;;;30.06;38.04;100280.34;5100763;28;1971;-40
2021/07/30 01:04:02;;;;;;;;;;;;;;;30.03;37.85;100273.44;5100665;28;799;-40
2021/07/30 01:06:28;;;;;;;;;;;;;;;30.03;37.98;100268.00;5100200;28;811;-40
2021/07/30 01:08:53;;;;;;;;;;;;;;;30.06;37.96;100272.19;5100126;28;867;-39
2021/07/30 01:11:18;;;;;;;;;;;;;;;30.08;38.00;100266.56;5100293;28;970;-41
2021/07/30 01:13:44;;;;;;;;;;;;;;;30.11;38.03;100266.13;5100569;28;819;-39
2021/07/30 01:16:09;;;;;;;;;;;;;;;30.05;38.07;100270.50;5100223;28;796;-41
2021/07/30 01:18:34;;;;;;;;;;;;;;;30.05;38.18;100274.06;5100320;28;839;-39
2021/07/30 01:21:28;;;;;;;;;;;;;;;30.14;38.03;100279.25;5099936;28;1905;-40
2021/07/30 01:23:54;;;;;;;;;;;;;;;30.12;38.05;100279.47;5096884;28;756;-39
2021/07/30 01:26:19;;;;;;;;;;;;;;;30.09;38.19;100266.34;5099980;28;1013;-40
2021/07/30 01:28:45;;;;;;;;;;;;;;;30.09;37.96;100266.34;5082175;28;835;-41
2021/07/30 01:31:10;;;;;;;;;;;;;;;30.05;38.18;100265.94;5100258;28;783;-39
2021/07/30 01:33:35;;;;;;;;;;;;;;;30.04;38.17;100271.56;5099625;28;857;-39
2021/07/30 01:36:00;;;;;;;;;;;;;;;30.10;38.02;100268.00;5100166;28;802;-40
2021/07/30 01:38:26;;;;;;;;;;;;;;;30.11;38.11;100264.25;5100115;28;820;-40
2021/07/30 01:40:51;;;;;;;;;;;;;;;30.14;38.03;100263.81;5099757;28;1974;-39
2021/07/30 01:43:16;;;;;;;;;;;;;;;30.08;38.15;100263.84;5099508;28;990;-38
2021/07/30 01:45:42;;;;;;;;;;;;;;;30.08;38.18;100263.84;5099733;28;743;-39
2021/07/30 01:48:07;;;;;;;;;;;;;;;30.03;38.32;100259.06;5099294;28;880;-39
2021/07/30 01:50:32;;;;;;;;;;;;;;;30.10;38.09;100261.72;5099947;28;755;-39
2021/07/30 01:52:57;;;;;;;;;;;;;;;30.08;38.19;100263.84;5099736;28;742;-39
2021/07/30 01:55:24;;;;;;;;;;;;;;;30.11;38.18;100263.41;5098953;28;1211;-39
2021/07/30 01:57:49;;;;;;;;;;;;;;;30.15;38.09;100261.91;5099193;28;986;-39
2021/07/30 02:00:15;;;;;;;;;;;;;;;30.07;38.12;100254.88;5099206;28;783;-40
2021/07/30 02:02:40;;;;;;;;;;;;;;;30.08;38.04;100255.72;5099348;28;1955;-39
2021/07/30 02:05:06;;;;;;;;;;;;;;;30.06;38.09;100251.31;5081163;28;1110;-40
2021/07/30 02:07:31;;;;;;;;;;;;;;;30.08;38.26;100261.94;5099491;28;763;-39
2021/07/30 02:09:58;;;;;;;;;;;;;;;30.08;38.19;100261.13;5099296;28;855;-39
2021/07/30 02:12:23;;;;;;;;;;;;;;;30.04;38.36;100253.44;5098879;28;950;-40
2021/07/30 02:14:48;;;;;;;;;;;;;;;30.06;38.21;100255.94;5099521;28;871;-39
2021/07/30 02:17:13;;;;;;;;;;;;;;;30.04;38.22;100255.31;5098919;28;791;-40
2021/07/30 02:19:39;;;;;;;;;;;;;;;30.08;38.33;100253.00;5099281;28;855;-39
2021/07/30 02:22:04;;;;;;;;;;;;;;;30.08;38.23;100247.56;5098853;28;1959;-39
2021/07/30 02:24:29;;;;;;;;;;;;;;;30.06;38.14;100247.78;5098968;28;859;-39
2021/07/30 02:26:54;;;;;;;;;;;;;;;30.13;38.08;100254.00;5098423;28;989;-40
2021/07/30 02:29:20;;;;;;;;;;;;;;;30.11;37.95;100255.28;5099389;28;892;-40
2021/07/30 02:31:48;;;;;;;;;;;;;;;30.15;38.09;100251.06;5098806;28;882;-40
2021/07/30 02:34:13;;;;;;;;;;;;;;;30.09;38.14;100260.06;5098978;28;789;-40
2021/07/30 02:36:38;;;;;;;;;;;;;;;30.13;38.05;100264.84;5098287;28;812;-40
2021/07/30 02:39:04;;;;;;;;;;;;;;;30.05;38.15;100249.66;5098670;28;759;-39
2021/07/30 02:41:29;;;;;;;;;;;;;;;30.13;38.19;100259.41;5098297;28;1898;-40
2021/07/30 02:43:55;;;;;;;;;;;;;;;30.06;38.13;100251.31;5098953;28;799;-40
2021/07/30 02:46:20;;;;;;;;;;;;;;;30.13;38.16;100262.13;5098445;28;763;-40
2021/07/30 02:48:46;;;;;;;;;;;;;;;30.09;38.11;100266.34;5098789;28;771;-40
2021/07/30 02:51:12;;;;;;;;;;;;;;;30.07;38.10;100260.28;5098217;28;891;-39
2021/07/30 02:53:38;;;;;;;;;;;;;;;30.06;38.28;100258.63;5098428;28;1078;-39
2021/07/30 02:56:04;;;;;;;;;;;;;;;30.14;38.25;100271.13;5098427;28;1034;-38
2021/07/30 02:58:30;;;;;;;;;;;;;;;30.06;38.30;100264.06;5098362;28;744;-40
2021/07/30 03:00:56;;;;;;;;;;;;;;;30.10;38.11;100267.16;5098430;28;1964;-40
2021/07/30 03:03:21;;;;;;;;;;;;;;;30.15;38.06;100262.75;5098168;28;792;-36
2021/07/30 03:05:47;;;;;;;;;;;;;;;30.10;38.08;100268.00;5097756;28;788;-39
2021/07/30 03:08:12;;;;;;;;;;;;;;;30.09;37.94;100266.34;5097856;28;833;-39
2021/07/30 03:10:37;;;;;;;;;;;;;;;30.03;38.58;100278.88;5098520;28;748;-43
2021/07/30 03:13:03;;;;;;;;;;;;;;;29.69;36.16;100280.84;5097297;28;942;-38
2021/07/30 03:15:28;;;;;;;;;;;;;;;29.29;36.37;100276.28;5098108;28;783;-35
2021/07/30 03:17:53;;;;;;;;;;;;;;;29.05;37.40;100275.88;5096181;28;1008;-36
2021/07/30 03:20:19;;;;;;;;;;;;;;;28.49;38.21;100276.00;5097902;28;783;-35
2021/07/30 03:22:44;;;;;;;;;;;;;;;28.30;38.42;100286.50;5097911;28;1917;-37
2021/07/30 03:25:09;;;;;;;;;;;;;;;28.18;38.62;100296.22;5097917;28;787;-37
2021/07/30 03:27:35;;;;;;;;;;;;;;;28.14;38.05;100284.16;5097403;28;1014;-37
2021/07/30 03:30:00;;;;;;;;;;;;;;;28.29;37.18;100287.56;5097303;28;890;-36
2021/07/30 03:32:25;;;;;;;;;;;;;;;27.82;39.39;100281.91;5097903;28;927;-36
2021/07/30 03:34:50;;;;;;;;;;;;;;;27.75;39.47;100274.59;5097480;28;899;-37
2021/07/30 03:37:16;;;;;;;;;;;;;;;28.26;38.55;100279.00;5097499;28;772;-37
2021/07/30 03:39:41;;;;;;;;;;;;;;;28.33;38.78;100272.59;5097513;28;772;-38
2021/07/30 03:42:09;;;;;;;;;;;;;;;27.69;39.51;100272.72;5097045;28;1989;-37
2021/07/30 03:44:38;;;;;;;;;;;;;;;28.01;39.29;100274.94;5097649;28;744;-38
2021/07/30 03:47:03;;;;;;;;;;;;;;;28.14;38.80;100273.34;5097113;28;751;-38
2021/07/30 03:49:28;;;;;;;;;;;;;;;27.67;41.12;100273.88;5097832;28;764;-38
2021/07/30 03:51:54;;;;;;;;;;;;;;;27.31;42.64;100284.66;5097354;28;747;-37
2021/07/30 03:54:19;;;;;;;;;;;;;;;27.01;43.86;100282.97;5097125;28;1210;-38
2021/07/30 03:56:44;;;;;;;;;;;;;;;27.37;43.49;100293.84;5096178;28;1492;-38
2021/07/30 03:59:10;;;;;;;;;;;;;;;27.44;43.39;100292.03;5096632;28;787;-40
2021/07/30 04:01:35;;;;;;;;;;;;;;;27.65;43.77;100281.34;5097199;28;1978;-40
2021/07/30 04:04:00;;;;;;;;;;;;;;;28.19;40.69;100292.50;5097241;28;807;-42
2021/07/30 04:06:26;;;;;;;;;;;;;;;28.20;40.34;100289.59;5096940;28;799;-41
2021/07/30 04:08:51;;;;;;;;;;;;;;;28.01;41.66;100291.16;5096451;28;1500;-41
2021/07/30 04:11:16;;;;;;;;;;;;;;;27.94;41.68;100291.13;5096841;28;951;-43
2021/07/30 04:13:42;;;;;;;;;;;;;;;28.00;40.92;100284.09;5096680;28;886;-42
2021/07/30 04:16:07;;;;;;;;;;;;;;;28.28;40.43;100290.47;5096611;28;851;-42
2021/07/30 04:18:33;;;;;;;;;;;;;;;27.84;41.19;100290.66;5096004;28;1491;-42
2021/07/30 04:20:58;;;;;;;;;;;;;;;27.76;40.70;100278.13;5095464;28;1898;-42
2021/07/30 04:23:23;;;;;;;;;;;;;;;28.34;39.66;100293.19;5096702;28;1531;-43
2021/07/30 04:25:48;;;;;;;;;;;;;;;28.66;38.88;100281.84;5096912;28;833;-37
2021/07/30 04:28:14;;;;;;;;;;;;;;;29.04;37.82;100290.47;5096590;28;951;-33
2021/07/30 04:30:39;;;;;;;;;;;;;;;29.03;36.83;100280.69;5096985;28;822;-35
2021/07/30 04:33:04;;;;;;;;;;;;;;;29.03;36.79;100283.41;5097227;28;814;-36
2021/07/30 04:35:30;;;;;;;;;;;;;;;29.19;36.93;100280.28;5096387;28;731;-36
2021/07/30 04:37:55;;;;;;;;;;;;;;;29.11;37.11;100285.91;5096757;28;767;-36
2021/07/30 04:40:21;;;;;;;;;;;;;;;28.95;36.87;100279.81;5096396;28;813;-41
2021/07/30 04:42:46;;;;;;;;;;;;;;;28.95;36.65;100281.66;5096173;28;1889;-42
2021/07/30 04:45:11;;;;;;;;;;;;;;;28.82;36.71;100290.63;5096840;28;822;-42
2021/07/30 04:47:37;;;;;;;;;;;;;;;28.76;37.50;100289.56;5096571;28;807;-33
2021/07/30 04:50:02;;;;;;;;;;;;;;;28.95;37.03;100296.06;5096414;28;791;-40
2021/07/30 04:52:27;;;;;;;;;;;;;;;28.78;36.89;100298.31;5096715;28;1011;-40
2021/07/30 04:54:52;;;;;;;;;;;;;;;28.79;36.67;100291.03;5096451;28;1090;-35
2021/07/30 04:57:18;;;;;;;;;;;;;;;28.81;36.47;100292.47;5096487;28;962;-39
2021/07/30 04:59:43;;;;;;;;;;;;;;;28.82;36.90;100296.03;5096334;28;748;-41
2021/07/30 05:02:09;;;;;;;;;;;;;;;28.77;37.09;100295.81;5096321;28;1902;-40
2021/07/30 05:04:37;;;;;;;;;;;;;;;28.71;37.01;100295.59;5095896;28;1499;-42
2021/07/30 05:07:05;;;;;;;;;;;;;;;29.00;36.89;100303.59;5096755;28;699;-42
2021/07/30 05:09:30;;;;;;;;;;;;;;;29.13;36.23;100299.22;5096166;28;823;-41
2021/07/30 05:11:56;;;;;;;;;;;;;;;29.27;36.93;100298.19;5091114;28;1294;-40
2021/07/30 05:14:21;;;;;;;;;;;;;;;29.16;36.60;100302.31;5094195;28;1472;-42
2021/07/30 05:16:46;;;;;;;;;;;;;;;29.08;36.44;100313.38;5095694;28;1210;-42
2021/07/30 05:19:12;;;;;;;;;;;;;;;29.11;36.42;100312.97;5093036;28;1468;-42
2021/07/30 05:21:37;;;;;;;;;;;;;;;29.06;36.23;100319.00;5090512;28;1897;-42
2021/07/30 05:24:02;;;;;;;;;;;;;;;29.11;36.17;100326.53;5094682;28;1322;-42
2021/07/30 05:26:28;;;;;;;;;;;;;;;29.11;36.61;100333.81;5095014;28;1302;-43
2021/07/30 05:28:53;;;;;;;;;;;;;;;29.32;36.71;100341.75;5095747;28;1450;-45
2021/07/30 05:31:18;;;;;;;;;;;;;;;29.32;36.70;100339.03;5096257;28;779;-40
2021/07/30 05:33:44;;;;;;;;;;;;;;;29.26;36.14;100344.44;5095696;28;1341;-41
2021/07/30 05:36:13;;;;;;;;;;;;;;;29.48;36.30;100349.66;5097255;28;1388;-39
2021/07/30 05:38:39;;;;;;;;;;;;;;;29.32;36.65;100333.59;5096985;28;1372;-40
2021/07/30 05:41:04;;;;;;;;;;;;;;;29.32;36.39;100330.91;5098794;28;1953;-39
2021/07/30 05:43:31;;;;;;;;;;;;;;;29.33;36.32;100324.44;5098859;28;1345;-38
2021/07/30 05:45:56;;;;;;;;;;;;;;;29.04;36.43;100326.50;5099803;28;806;-37
2021/07/30 05:48:21;;;;;;;;;;;;;;;28.99;36.84;100325.44;5100000;28;791;-38
2021/07/30 05:50:47;;;;;;;;;;;;;;;29.13;36.66;100331.72;5098308;28;1491;-37
2021/07/30 05:53:13;;;;;;;;;;;;;;;29.36;36.81;100316.94;5097692;28;1264;-41
2021/07/30 05:55:38;;;;;;;;;;;;;;;29.49;36.63;100308.81;5119527;28;1162;-41
2021/07/30 05:58:03;;;;;;;;;;;;;;;29.39;36.42;100314.66;5119360;28;1005;-41
2021/07/30 06:00:30;;;;;;;;;;;;;;;29.18;36.35;100305.66;5116569;28;998;-41
2021/07/30 06:02:55;;;;;;;;;;;;;;;29.12;36.26;100308.38;5102538;28;1902;-41
2021/07/30 06:05:20;;;;;;;;;;;;;;;28.90;36.81;100306.66;5105338;28;851;-40
2021/07/30 06:07:46;;;;;;;;;;;;;;;28.52;37.58;100307.19;5104817;28;931;-41
2021/07/30 06:10:11;;;;;;;;;;;;;;;28.80;37.64;100317.91;5118231;28;800;-41
2021/07/30 06:12:36;;;;;;;;;;;;;;;28.73;38.06;100309.75;5112808;28;942;-41
2021/07/30 06:15:02;;;;;;;;;;;;;;;28.43;38.25;100309.25;5106727;28;859;-40
2021/07/30 06:17:27;;;;;;;;;;;;;;;28.29;38.34;100311.88;5108645;28;824;-40
2021/07/30 06:19:52;;;;;;;;;;;;;;;28.19;38.32;100309.56;5110913;28;808;-41
2021/07/30 06:22:19;;;;;;;;;;;;;;;28.15;38.38;100313.69;5097700;28;1918;-40
2021/07/30 06:24:44;;;;;;;;;;;;;;;28.22;38.39;100308.31;5097842;28;820;-39
2021/07/30 06:27:09;;;;;;;;;;;;;;;28.43;38.44;100303.84;5108793;28;939;-41
2021/07/30 06:29:35;;;;;;;;;;;;;;;28.67;38.05;100307.88;5115416;28;924;-39
2021/07/30 06:32:00;;;;;;;;;;;;;;;28.33;38.57;100304.22;5110579;28;866;-40
2021/07/30 06:34:25;;;;;;;;;;;;;;;28.20;38.33;100307.66;5097533;28;859;-40
2021/07/30 06:36:57;;;;;;;;;;;;;;;28.22;38.18;100308.31;5097957;28;789;-40
2021/07/30 06:39:23;;;;;;;;;;;;;;;28.14;38.28;100311.19;5108016;28;856;-41
2021/07/30 06:41:48;;;;;;;;;;;;;;;28.02;39.06;100305.50;5111578;28;1886;-41
2021/07/30 06:44:13;;;;;;;;;;;;;;;28.27;38.62;100300.44;5096206;28;875;-41
2021/07/30 06:46:38;;;;;;;;;;;;;;;28.67;37.88;100305.16;5101768;28;814;-42
2021/07/30 06:49:05;;;;;;;;;;;;;;;28.48;38.66;100310.31;5117345;28;869;-40
2021/07/30 06:51:30;;;;;;;;;;;;;;;28.22;38.00;100301.03;5105547;28;840;-41
2021/07/30 06:53:55;;;;;;;;;;;;;;;28.22;37.52;100306.44;5097301;28;1087;-40
2021/07/30 06:56:20;;;;;;;;;;;;;;;28.19;37.75;100309.56;5107268;28;828;-41
2021/07/30 06:58:46;;;;;;;;;;;;;;;28.25;37.69;100302.50;5117513;28;1165;-38
2021/07/30 07:01:11;;;;;;;;;;;;;;;28.10;38.14;100308.88;5116156;28;1982;-41
2021/07/30 07:03:36;;;;;;;;;;;;;;;28.06;38.42;100306.78;5110073;28;867;-41
2021/07/30 07:06:02;;;;;;;;;;;;;;;28.21;38.32;100315.59;5117316;28;981;-40
2021/07/30 07:08:27;;;;;;;;;;;;;;;28.52;38.25;100316.16;5098000;28;848;-40
2021/07/30 07:10:52;;;;;;;;;;;;;;;28.40;38.45;100324.03;5096592;28;849;-41
2021/07/30 07:13:18;;;;;;;;;;;;;;;28.38;37.81;100314.44;5102261;28;959;-41
2021/07/30 07:15:43;;;;;;;;;;;;;;;28.06;38.02;100312.19;5104987;28;812;-39
2021/07/30 07:18:09;;;;;;;;;;;;;;;28.08;37.80;100313.66;5101750;28;847;-41
2021/07/30 07:20:34;;;;;;;;;;;;;;;28.16;37.93;100315.34;5116511;28;840;-40
2021/07/30 07:22:59;;;;;;;;;;;;;;;28.21;37.74;100312.88;5116251;28;1909;-40
2021/07/30 07:25:25;;;;;;;;;;;;;;;28.16;37.98;100315.34;5101800;28;839;-40
2021/07/30 07:27:50;;;;;;;;;;;;;;;28.33;38.04;100315.88;5103974;28;854;-41
2021/07/30 07:30:15;;;;;;;;;;;;;;;28.72;37.76;100323.50;5111017;28;815;-39
2021/07/30 07:32:40;;;;;;;;;;;;;;;28.71;37.83;100321.84;5105875;28;935;-42
2021/07/30 07:35:06;;;;;;;;;;;;;;;28.43;37.20;100326.31;5115686;28;860;-41
2021/07/30 07:37:31;;;;;;;;;;;;;;;28.16;37.51;100331.56;5117567;28;855;-41
2021/07/30 07:39:56;;;;;;;;;;;;;;;28.13;37.99;100317.66;5107800;28;871;-41
2021/07/30 07:42:22;;;;;;;;;;;;;;;28.14;37.85;100320.16;5106572;28;1972;-42
2021/07/30 07:44:50;;;;;;;;;;;;;;;28.18;38.15;100320.56;5096384;28;854;-40
2021/07/30 07:47:15;;;;;;;;;;;;;;;28.41;37.93;100322.97;5095281;28;848;-40
2021/07/30 07:49:41;;;;;;;;;;;;;;;28.63;37.77;100328.25;5096702;28;901;-41
2021/07/30 07:52:06;;;;;;;;;;;;;;;29.02;37.58;100327.75;5103667;28;858;-40
2021/07/30 07:54:31;;;;;;;;;;;;;;;29.01;37.76;100326.09;5104249;28;1027;-41
2021/07/30 07:57:01;;;;;;;;;;;;;;;28.75;37.68;100316.81;5101203;28;808;-41
2021/07/30 07:59:27;;;;;;;;;;;;;;;28.69;37.78;100327.47;5097324;28;902;-40
2021/07/30 08:01:52;;;;;;;;;;;;;;;28.73;37.47;100325.16;5104958;28;1910;-40
2021/07/30 08:04:17;;;;;;;;;;;;;;;28.69;37.82;100327.47;5102283;28;803;-41
2021/07/30 08:06:42;;;;;;;;;;;;;;;28.48;38.28;100323.84;5116181;28;859;-40
2021/07/30 08:09:08;;;;;;;;;;;;;;;28.83;37.55;100330.16;5107808;28;875;-41
2021/07/30 08:11:33;;;;;;;;;;;;;;;29.07;37.62;100328.81;5112634;28;855;-40
2021/07/30 08:13:58;;;;;;;;;;;;;;;28.90;37.49;100325.63;5103494;28;1109;-40
2021/07/30 08:16:25;;;;;;;;;;;;;;;28.69;37.06;100324.75;5095781;28;844;-40
2021/07/30 08:18:50;;;;;;;;;;;;;;;28.54;36.58;100321.38;5096025;28;848;-40
2021/07/30 08:21:15;;;;;;;;;;;;;;;28.38;37.12;100325.28;5101889;28;1905;-41
2021/07/30 08:23:41;;;;;;;;;;;;;;;28.37;37.30;100319.03;5107391;28;856;-40
2021/07/30 08:26:06;;;;;;;;;;;;;;;28.41;37.52;100322.16;5111459;28;804;-40
2021/07/30 08:28:31;;;;;;;;;;;;;;;28.46;37.73;100317.78;5116416;28;804;-40
2021/07/30 08:30:56;;;;;;;;;;;;;;;28.57;37.50;100310.13;5104041;28;923;-40
2021/07/30 08:33:22;;;;;;;;;;;;;;;28.92;37.03;100312.72;5095815;28;805;-42
2021/07/30 08:35:47;;;;;;;;;;;;;;;29.01;37.30;100304.44;5114072;28;918;-36
2021/07/30 08:38:13;;;;;;;;;;;;;;;28.94;36.65;100302.53;5114363;28;804;-40
2021/07/30 08:40:39;;;;;;;;;;;;;;;28.96;36.03;100307.72;5107075;28;820;-40
2021/07/30 08:43:04;;;;;;;;;;;;;;;28.58;36.58;100301.81;5103217;28;1960;-40
2021/07/30 08:45:29;;;;;;;;;;;;;;;28.76;36.36;100300.38;5111947;28;835;-40
2021/07/30 08:47:55;;;;;;;;;;;;;;;28.65;36.86;100296.41;5095752;28;812;-41
2021/07/30 08:50:20;;;;;;;;;;;;;;;28.49;37.21;100297.63;5077740;28;851;-42
2021/07/30 08:52:46;;;;;;;;;;;;;;;28.58;37.29;100296.41;5102280;28;812;-37
2021/07/30 08:55:12;;;;;;;;;;;;;;;28.78;37.04;100302.91;5077313;28;1110;-39
2021/07/30 08:57:39;;;;;;;;;;;;;;;28.84;37.22;100300.19;5108934;28;837;-36
2021/07/30 09:00:12;;;;;;;;;;;;;;;28.60;37.53;100298.91;5095515;28;816;-36
2021/07/30 09:02:37;;;;;;;;;;;;;;;28.76;36.80;100297.66;5103345;28;1906;-41
2021/07/30 09:05:21;;;;;;;;;;;;;;;28.80;36.42;100295.41;5094095;28;927;-41
2021/07/30 09:07:46;;;;;;;;;;;;;;;29.14;36.02;100290.06;5106322;28;1400;-37
2021/07/30 09:10:11;;;;;;;;;;;;;;;29.22;36.09;100287.13;5111835;28;1079;-39
2021/07/30 09:12:36;;;;;;;;;;;;;;;29.28;36.05;100283.59;5119142;28;1253;-41
2021/07/30 09:15:03;;;;;;;;;;;;;;;29.34;35.83;100282.72;5120453;28;815;-41
2021/07/30 09:17:37;;;;;;;;;;;;;;;29.37;35.84;100286.91;5092972;28;852;-38
2021/07/30 09:20:03;;;;;;;;;;;;;;;29.41;36.00;100288.16;5117155;28;899;-40
2021/07/30 09:22:28;;;;;;;;;;;;;;;29.41;36.15;100290.06;5119767;28;1889;-41
2021/07/30 09:24:59;;;;;;;;;;;;;;;29.40;36.12;100283.78;5120423;28;762;-40
2021/07/30 09:27:25;;;;;;;;;;;;;;;29.32;36.38;100284.00;5112052;28;1075;-42
2021/07/30 09:29:51;;;;;;;;;;;;;;;29.28;36.32;100283.59;5081403;28;1448;-40
2021/07/30 09:32:16;;;;;;;;;;;;;;;29.24;36.42;100278.78;5081066;28;1394;-40
2021/07/30 09:34:44;;;;;;;;;;;;;;;29.22;36.54;100276.31;5099622;28;760;-42
2021/07/30 09:37:13;;;;;;;;;;;;;;;29.28;36.61;100280.06;5101358;28;864;-40
2021/07/30 09:39:40;;;;;;;;;;;;;;;29.27;36.31;100289.22;5117134;28;1229;-41
2021/07/30 09:42:15;;;;;;;;;;;;;;;29.18;36.92;100277.75;5115232;28;1898;-41
2021/07/30 09:44:49;;;;;;;;;;;;;;;29.13;36.96;100283.78;5114456;28;864;-38
2021/07/30 09:47:14;;;;;;;;;;;;;;;29.15;36.57;100284.44;5118958;28;1411;-40
2021/07/30 09:49:50;;;;;;;;;;;;;;;29.34;37.04;100282.72;5114674;28;904;-37
2021/07/30 09:52:16;;;;;;;;;;;;;;;29.33;37.35;100282.94;5113080;28;885;-41
2021/07/30 09:54:45;;;;;;;;;;;;;;;29.25;37.52;100272.31;5106307;28;1160;-40
2021/07/30 09:57:11;;;;;;;;;;;;;;;29.37;37.69;100280.66;5114714;28;1177;-41
2021/07/30 09:59:37;;;;;;;;;;;;;;;29.36;37.33;100277.13;5111250;28;1179;-40
2021/07/30 10:02:02;;;;;;;;;;;;;;;29.12;37.76;100274.00;5109171;28;1978;-41
2021/07/30 10:04:27;;;;;;;;;;;;;;;28.88;38.16;100267.31;5092955;28;855;-40
2021/07/30 10:06:53;;;;;;;;;;;;;;;28.89;38.32;100269.81;5091011;28;843;-41
2021/07/30 10:09:19;;;;;;;;;;;;;;;29.25;37.96;100262.34;5099004;28;843;-41
2021/07/30 10:11:47;;;;;;;;;;;;;;;29.48;37.74;100265.66;5112571;28;1451;-41
2021/07/30 10:14:12;;;;;;;;;;;;;;;29.41;38.11;100260.25;5104126;28;870;-39
2021/07/30 10:16:37;;;;;;;;;;;;;;;29.51;38.08;100257.91;5086564;28;845;-39
2021/07/30 10:19:03;;;;;;;;;;;;;;;29.51;38.13;100249.78;5100319;28;824;-41
2021/07/30 10:21:28;;;;;;;;;;;;;;;29.52;38.24;100251.47;5116468;28;1893;-40
2021/07/30 10:23:54;;;;;;;;;;;;;;;29.45;38.09;100250.63;5099402;28;1171;-39
2021/07/30 10:26:23;;;;;;;;;;;;;;;29.62;38.42;100251.06;5109220;28;895;-39
2021/07/30 10:28:48;;;;;;;;;;;;;;;29.41;38.52;100252.13;5088270;28;878;-40
2021/07/30 10:31:15;;;;;;;;;;;;;;;29.50;38.55;100250.00;5108140;28;1535;-41
2021/07/30 10:33:43;;;;;;;;;;;;;;;29.62;38.25;100259.19;5098162;28;851;-40
2021/07/30 10:36:32;;;;;;;;;;;;;;;29.56;38.48;100241.03;5114482;28;1190;-38
2021/07/30 10:39:07;;;;;;;;;;;;;;;29.12;39.08;100248.78;5106663;28;1744;-40
2021/07/30 10:41:32;;;;;;;;;;;;;;;29.52;38.63;100248.75;5108608;28;1905;-39
2021/07/30 10:44:01;;;;;;;;;;;;;;;29.76;38.50;100245.59;5093381;28;971;-40
2021/07/30 10:46:26;;;;;;;;;;;;;;;29.84;38.45;100239.09;5114354;28;946;-40
2021/07/30 10:48:54;;;;;;;;;;;;;;;29.92;38.38;100244.28;5115857;28;842;-38
2021/07/30 10:51:19;;;;;;;;;;;;;;;29.89;38.25;100239.28;5100123;28;856;-38
2021/07/30 10:53:45;;;;;;;;;;;;;;;29.97;38.06;100243.63;5099228;28;1162;-41
2021/07/30 10:56:17;;;;;;;;;;;;;;;30.01;38.17;100250.31;5099718;28;990;-41
2021/07/30 10:58:45;;;;;;;;;;;;;;;29.92;38.63;100233.44;5105869;28;867;-37
2021/07/30 11:01:14;;;;;;;;;;;;;;;29.74;38.91;100244.97;5117706;28;1975;-41
2021/07/30 11:03:48;;;;;;;;;;;;;;;29.80;38.78;100235.97;5116072;28;863;-38
2021/07/30 11:06:14;;;;;;;;;;;;;;;29.83;38.86;100238.25;5116153;28;1444;-36
2021/07/30 11:08:58;;;;;;;;;;;;;;;29.84;39.16;100237.22;5117632;28;1214;-38
2021/07/30 11:11:42;;;;;;;;;;;;;;;29.56;37.89;100238.34;5117734;28;911;-40
2021/07/30 11:14:13;;;;;;;;;;;;;;;29.65;39.07;100242.50;5118063;28;763;-34
2021/07/30 11:16:39;;;;;;;;;;;;;;;29.81;39.00;100235.75;5117092;28;1507;-36
2021/07/30 11:19:04;;;;;;;;;;;;;;;29.79;39.15;100228.91;5117201;28;1494;-36
2021/07/30 11:21:30;;;;;;;;;;;;;;;29.80;39.11;100235.97;5102088;28;1902;-37
2021/07/30 11:23:58;;;;;;;;;;;;;;;29.63;39.15;100239.16;5095811;28;880;-35
2021/07/30 11:26:23;;;;;;;;;;;;;;;29.42;39.20;100230.22;5115572;28;1127;-39
2021/07/30 11:28:52;;;;;;;;;;;;;;;29.59;38.92;100227.09;5117621;28;891;-35
2021/07/30 11:31:18;;;;;;;;;;;;;;;29.49;38.13;100227.50;5117809;28;779;-40
2021/07/30 11:33:43;;;;;;;;;;;;;;;29.70;39.35;100223.72;5115705;28;1491;-36
2021/07/30 11:36:09;;;;;;;;;;;;;;;29.69;39.35;100227.50;5099651;28;844;-38
2021/07/30 11:38:51;;;;;;;;;;;;;;;29.46;39.27;100217.09;5107923;28;868;-39
2021/07/30 11:41:16;;;;;;;;;;;;;;;29.54;39.24;100219.56;5115512;28;1965;-39
2021/07/30 11:44:00;;;;;;;;;;;;;;;29.71;39.01;100221.84;5117601;28;739;-39
2021/07/30 11:46:26;;;;;;;;;;;;;;;29.54;39.81;100218.72;5115858;28;867;-39
2021/07/30 11:48:51;;;;;;;;;;;;;;;29.51;39.52;100211.84;5115099;28;1119;-40
2021/07/30 11:51:16;;;;;;;;;;;;;;;29.35;39.36;100202.31;5116471;28;876;-38
2021/07/30 11:53:42;;;;;;;;;;;;;;;29.37;39.18;100204.81;5098449;28;1029;-37
2021/07/30 11:56:07;;;;;;;;;;;;;;;29.68;39.47;100206.84;5116401;28;1578;-37
2021/07/30 11:58:32;;;;;;;;;;;;;;;29.74;39.40;100209.75;5115571;28;911;-38
2021/07/30 12:01:10;;;;;;;;;;;;;;;29.41;39.06;100204.16;5117272;28;1910;-38
2021/07/30 12:03:35;;;;;;;;;;;;;;;29.39;39.66;100202.72;5109337;28;852;-39
2021/07/30 12:06:01;;;;;;;;;;;;;;;29.55;39.59;100204.13;5084552;28;772;-38
2021/07/30 12:08:26;;;;;;;;;;;;;;;29.72;39.22;100200.97;5098993;28;787;-38
2021/07/30 12:10:51;;;;;;;;;;;;;;;29.64;39.73;100202.91;5099153;28;803;-39
2021/07/30 12:13:17;;;;;;;;;;;;;;;29.55;39.61;100202.25;5116590;28;993;-39
2021/07/30 12:15:42;;;;;;;;;;;;;;;29.46;39.37;100198.94;5096921;28;813;-40
2021/07/30 12:18:07;;;;;;;;;;;;;;;29.47;39.39;100213.31;5078527;28;815;-39
2021/07/30 12:20:33;;;;;;;;;;;;;;;29.50;38.97;100199.34;5112375;28;942;-37
2021/07/30 12:23:03;;;;;;;;;;;;;;;29.62;39.55;100206.84;5113285;28;1910;-40
2021/07/30 12:25:38;;;;;;;;;;;;;;;29.68;39.39;100203.28;5102886;28;732;-39
2021/07/30 12:28:07;;;;;;;;;;;;;;;29.68;39.58;100206.00;5116182;28;950;-39
2021/07/30 12:30:32;;;;;;;;;;;;;;;29.70;39.37;100199.31;5104123;28;1425;-37
2021/07/30 12:32:58;;;;;;;;;;;;;;;29.48;39.50;100206.03;5100584;28;891;-41
2021/07/30 12:35:33;;;;;;;;;;;;;;;29.36;39.87;100201.28;5098313;28;787;-36
2021/07/30 12:38:02;;;;;;;;;;;;;;;29.61;39.57;100197.06;5117111;28;803;-37
2021/07/30 12:40:27;;;;;;;;;;;;;;;29.69;39.47;100194.97;5107080;28;845;-36
2021/07/30 12:43:11;;;;;;;;;;;;;;;29.51;39.56;100194.78;5110865;28;1886;-40
2021/07/30 12:45:37;;;;;;;;;;;;;;;29.41;39.80;100187.09;5106005;28;868;-38
2021/07/30 12:48:02;;;;;;;;;;;;;;;29.40;39.79;100188.97;5100474;28;874;-35